createdAt,value
2023-04-01T00:01:43.873Z,97149.34
2023-04-01T00:04:10.602Z,97153.28
2023-04-01T00:06:37.229Z,97136.13
2023-04-01T00:09:04.046Z,97136.41
2023-04-01T00:11:33.437Z,97143.25
2023-04-01T00:14:00.794Z,97141.13
2023-04-01T00:16:28.628Z,97137.97
2023-04-01T00:18:55.450Z,97145.63
2023-04-01T00:21:23.305Z,97146.16
2023-04-01T00:23:51.665Z,97150.34
2023-04-01T00:26:21.387Z,97139.56
2023-04-01T00:28:48.592Z,97127.94
2023-04-01T00:31:15.587Z,97135.84
2023-04-01T00:33:42.497Z,97144.56
2023-04-01T00:36:14.296Z,97143.00
2023-04-01T00:38:42.756Z,97140.06
2023-04-01T00:41:15.473Z,97143.25
2023-04-01T00:43:43.080Z,97142.72
2023-04-01T00:46:09.822Z,97120.59
2023-04-01T00:48:40.591Z,97132.44
2023-04-01T00:51:15.237Z,97145.38
2023-04-01T00:53:48.152Z,97141.44
2023-04-01T00:56:30.130Z,97145.91
2023-04-01T00:59:02.660Z,97155.44
2023-04-01T01:01:31.621Z,97151.22
2023-04-01T01:03:58.517Z,97159.13
2023-04-01T01:06:48.055Z,97153.84
2023-04-01T01:09:30.409Z,97160.72
2023-04-01T01:12:07.770Z,97158.06
2023-04-01T01:15:08.216Z,97161.75
2023-04-01T01:18:08.588Z,97165.19
2023-04-01T01:20:49.998Z,97165.47
2023-04-01T01:23:53.782Z,97172.06
2023-04-01T01:26:31.417Z,97173.94
2023-04-01T01:29:19.496Z,97178.44
2023-04-01T01:32:00.417Z,97175.00
2023-04-01T01:34:47.373Z,97157.59
2023-04-01T01:37:22.899Z,97174.25
2023-04-01T01:39:57.548Z,97180.28
2023-04-01T01:42:29.898Z,97171.84
2023-04-01T01:45:00.834Z,97174.00
2023-04-01T01:47:29.597Z,97186.38
2023-04-01T01:49:57.015Z,97180.56
2023-04-01T01:52:24.593Z,97179.56
2023-04-01T01:54:56.500Z,97179.78
2023-04-01T01:57:29.065Z,97176.09
2023-04-01T02:00:03.089Z,97175.03
2023-04-01T02:02:33.299Z,97176.91
2023-04-01T02:05:00.757Z,97195.91
2023-04-01T02:07:36.903Z,97187.75
2023-04-01T02:10:05.022Z,97180.06
2023-04-01T02:12:32.173Z,97186.41
2023-04-01T02:15:13.275Z,97211.72
2023-04-01T02:17:44.907Z,97201.72
2023-04-01T02:20:20.299Z,97200.94
2023-04-01T02:22:55.848Z,97187.78
2023-04-01T02:25:29.873Z,97209.34
2023-04-01T02:27:59.279Z,97224.16
2023-04-01T02:30:30.987Z,97215.19
2023-04-01T02:32:59.985Z,97226.00
2023-04-01T02:35:27.581Z,97231.53
2023-04-01T02:37:56.990Z,97232.84
2023-04-01T02:40:23.928Z,97238.94
2023-04-01T02:42:52.986Z,97239.47
2023-04-01T02:45:20.541Z,97234.72
2023-04-01T02:47:49.874Z,97243.16
2023-04-01T02:50:16.607Z,97235.50
2023-04-01T02:52:43.108Z,97241.31
2023-04-01T02:55:10.205Z,97257.66
2023-04-01T02:57:36.937Z,97261.63
2023-04-01T03:00:05.576Z,97261.38
2023-04-01T03:02:32.246Z,97274.31
2023-04-01T03:04:58.871Z,97260.31
2023-04-01T03:07:25.415Z,97277.47
2023-04-01T03:09:52.078Z,97271.94
2023-04-01T03:12:18.703Z,97282.97
2023-04-01T03:14:45.347Z,97280.34
2023-04-01T03:17:14.899Z,97290.13
2023-04-01T03:19:41.554Z,97280.13
2023-04-01T03:22:11.052Z,97303.06
2023-04-01T03:24:39.664Z,97312.53
2023-04-01T03:27:10.259Z,97302.53
2023-04-01T03:29:37.005Z,97309.13
2023-04-01T03:32:03.826Z,97317.81
2023-04-01T03:34:32.017Z,97345.81
2023-04-01T03:36:59.237Z,97342.09
2023-04-01T03:39:26.309Z,97348.94
2023-04-01T03:41:57.209Z,97353.19
2023-04-01T03:44:25.600Z,97360.84
2023-04-01T03:46:52.643Z,97367.94
2023-04-01T03:49:19.527Z,97360.56
2023-04-01T03:51:46.226Z,97356.09
2023-04-01T03:54:13.599Z,97355.00
2023-04-01T03:56:40.439Z,97370.84
2023-04-01T03:59:10.289Z,97383.50
2023-04-01T04:01:38.157Z,97387.22
2023-04-01T04:04:05.742Z,97391.97
2023-04-01T04:06:34.431Z,97400.13
2023-04-01T04:09:01.255Z,97407.00
2023-04-01T04:11:27.939Z,97401.97
2023-04-01T04:13:57.211Z,97410.69
2023-04-01T04:16:24.862Z,97423.59
2023-04-01T04:18:52.397Z,97423.88
2023-04-01T04:21:19.100Z,97439.44
2023-04-01T04:23:46.182Z,97429.94
2023-04-01T04:26:15.343Z,97440.22
2023-04-01T04:28:42.519Z,97439.97
2023-04-01T04:31:10.511Z,97447.63
2023-04-01T04:33:37.457Z,97447.06
2023-04-01T04:36:05.483Z,97461.88
2023-04-01T04:38:32.980Z,97456.84
2023-04-01T04:41:02.044Z,97451.28
2023-04-01T04:43:30.484Z,97458.66
2023-04-01T04:45:57.159Z,97460.22
2023-04-01T04:48:23.996Z,97453.91
2023-04-01T04:50:51.633Z,97484.53
2023-04-01T04:53:19.879Z,97468.13
2023-04-01T04:55:48.109Z,97466.28
2023-04-01T04:58:14.805Z,97496.69
2023-04-01T05:00:41.462Z,97488.50
2023-04-01T05:03:10.400Z,97490.56
2023-04-01T05:05:37.453Z,97510.91
2023-04-01T05:08:05.005Z,97496.13
2023-04-01T05:10:33.280Z,97491.84
2023-04-01T05:13:00.405Z,97522.53
2023-04-01T05:15:27.010Z,97516.44
2023-04-01T05:17:53.777Z,97525.69
2023-04-01T05:20:21.771Z,97529.38
2023-04-01T05:22:51.262Z,97535.97
2023-04-01T05:25:17.854Z,97530.97
2023-04-01T05:27:44.373Z,97557.84
2023-04-01T05:30:13.055Z,97556.53
2023-04-01T05:32:41.438Z,97543.56
2023-04-01T05:35:09.873Z,97556.00
2023-04-01T05:37:38.789Z,97564.19
2023-04-01T05:40:07.015Z,97570.78
2023-04-01T05:42:36.096Z,97575.28
2023-04-01T05:45:04.428Z,97582.41
2023-04-01T05:47:31.239Z,97587.69
2023-04-01T05:50:01.590Z,97586.38
2023-04-01T05:52:28.306Z,97580.81
2023-04-01T05:54:55.106Z,97584.78
2023-04-01T05:57:22.152Z,97592.16
2023-04-01T05:59:49.200Z,97587.41
2023-04-01T06:02:23.909Z,97588.72
2023-04-01T06:04:55.316Z,97608.56
2023-04-01T06:07:22.012Z,97622.03
2023-04-01T06:09:48.647Z,97610.41
2023-04-01T06:12:38.283Z,97621.78
2023-04-01T06:15:12.813Z,97631.06
2023-04-01T06:17:53.313Z,97632.09
2023-04-01T06:20:40.155Z,97640.53
2023-04-01T06:23:28.223Z,97651.38
2023-04-01T06:26:03.965Z,97652.69
2023-04-01T06:29:02.513Z,97640.78
2023-04-01T06:31:44.298Z,97655.28
2023-04-01T06:34:59.956Z,97666.91
2023-04-01T06:38:07.077Z,97667.97
2023-04-01T06:40:58.324Z,97691.75
2023-04-01T06:43:45.175Z,97692.25
2023-04-01T06:46:13.418Z,97700.72
2023-04-01T06:48:51.809Z,97699.69
2023-04-01T06:51:33.278Z,97716.81
2023-04-01T06:54:20.729Z,97727.63
2023-04-01T06:56:51.858Z,97727.91
2023-04-01T06:59:30.941Z,97728.72
2023-04-01T07:02:11.950Z,97737.44
2023-04-01T07:04:49.418Z,97747.44
2023-04-01T07:07:41.859Z,97759.63
2023-04-01T07:10:21.047Z,97761.19
2023-04-01T07:12:58.549Z,97755.09
2023-04-01T07:15:49.377Z,97781.28
2023-04-01T07:18:45.349Z,97802.66
2023-04-01T07:21:26.375Z,97796.88
2023-04-01T07:23:57.681Z,97818.75
2023-04-01T07:26:26.076Z,97830.38
2023-04-01T07:28:54.186Z,97843.31
2023-04-01T07:31:45.700Z,97854.38
2023-04-01T07:34:32.222Z,97845.31
2023-04-01T07:37:19.291Z,97877.31
2023-04-01T07:39:57.818Z,97892.69
2023-04-01T07:42:39.319Z,97900.88
2023-04-01T07:45:20.932Z,97875.94
2023-04-01T07:48:24.634Z,97903.50
2023-04-01T07:51:07.451Z,97915.53
2023-04-01T07:53:50.890Z,97918.94
2023-04-01T07:56:35.208Z,97936.38
2023-04-01T07:59:19.664Z,97949.03
2023-04-01T08:02:36.884Z,97954.56
2023-04-01T08:05:20.814Z,97976.44
2023-04-01T08:08:11.755Z,97991.97
2023-04-01T08:10:41.086Z,98002.34
2023-04-01T08:13:10.456Z,98021.31
2023-04-01T08:15:36.960Z,98017.69
2023-04-01T08:18:18.922Z,98026.56
2023-04-01T08:20:57.310Z,98041.50
2023-04-01T08:23:29.388Z,98038.06
2023-04-01T08:26:03.892Z,98052.06
2023-04-01T08:28:42.157Z,98059.22
2023-04-01T08:31:08.604Z,98061.16
2023-04-01T08:33:35.473Z,98064.81
2023-04-01T08:36:10.685Z,98095.94
2023-04-01T08:38:54.454Z,98095.13
2023-04-01T08:41:38.107Z,98092.59
2023-04-01T08:44:26.403Z,98115.78
2023-04-01T08:47:14.754Z,98120.78
2023-04-01T08:50:23.714Z,98118.88
2023-04-01T08:52:56.696Z,98152.09
2023-04-01T08:55:27.432Z,98150.81
2023-04-01T08:58:12.197Z,98151.06
2023-04-01T09:01:28.177Z,98170.81
2023-04-01T09:04:13.258Z,98173.28
2023-04-01T09:06:51.762Z,98183.22
2023-04-01T09:09:45.972Z,98180.63
2023-04-01T09:12:47.007Z,98184.69
2023-04-01T09:15:35.618Z,98189.44
2023-04-01T09:18:02.464Z,98195.84
2023-04-01T09:20:47.796Z,98188.81
2023-04-01T09:23:30.598Z,98194.63
2023-04-01T09:26:16.036Z,98197.59
2023-04-01T09:29:20.202Z,98221.56
2023-04-01T09:32:12.523Z,98226.03
2023-04-01T09:35:12.380Z,98233.47
2023-04-01T09:38:01.598Z,98240.88
2023-04-01T09:40:55.657Z,98241.50
2023-04-01T09:43:22.201Z,98245.38
2023-04-01T09:46:15.097Z,98251.69
2023-04-01T09:48:44.318Z,98259.59
2023-04-01T09:51:48.036Z,98242.25
2023-04-01T09:54:14.475Z,98240.34
2023-04-01T09:57:01.300Z,98263.16
2023-04-01T09:59:43.155Z,98270.75
2023-04-01T10:02:24.599Z,98303.66
2023-04-01T10:05:19.322Z,98318.09
2023-04-01T10:08:12.034Z,98318.16
2023-04-01T10:11:10.595Z,98329.28
2023-04-01T10:14:08.377Z,98322.06
2023-04-01T10:16:59.804Z,98333.31
2023-04-01T10:19:56.843Z,98321.75
2023-04-01T10:22:31.035Z,98329.13
2023-04-01T10:25:10.172Z,98321.84
2023-04-01T10:27:42.668Z,98330.50
2023-04-01T10:30:43.033Z,98343.38
2023-04-01T10:33:51.327Z,98369.28
2023-04-01T10:36:46.484Z,98385.06
2023-04-01T10:39:39.841Z,98386.28
2023-04-01T10:42:18.680Z,98379.00
2023-04-01T10:45:27.166Z,98386.78
2023-04-01T10:48:24.092Z,98408.16
2023-04-01T10:51:17.400Z,98407.50
2023-04-01T10:54:04.833Z,98422.56
2023-04-01T10:56:36.349Z,98422.13
2023-04-01T10:59:21.050Z,98424.53
2023-04-01T11:02:09.982Z,98441.47
2023-04-01T11:04:59.475Z,98456.66
2023-04-01T11:08:03.142Z,98458.41
2023-04-01T11:10:56.777Z,98462.50
2023-04-01T11:13:29.125Z,98463.44
2023-04-01T11:16:23.138Z,98480.34
2023-04-01T11:19:31.032Z,98478.63
2023-04-01T11:22:31.411Z,98495.66
2023-04-01T11:25:20.789Z,98502.00
2023-04-01T11:28:02.249Z,98505.78
2023-04-01T11:31:03.356Z,98516.94
2023-04-01T11:33:37.788Z,98524.09
2023-04-01T11:36:29.367Z,98529.81
2023-04-01T11:38:59.200Z,98538.31
2023-04-01T11:41:53.053Z,98539.47
2023-04-01T11:44:23.591Z,98552.84
2023-04-01T11:47:01.181Z,98553.78
2023-04-01T11:49:46.153Z,98559.16
2023-04-01T11:52:18.647Z,98567.59
2023-04-01T11:55:13.577Z,98562.22
2023-04-01T11:57:57.944Z,98575.69
2023-04-01T12:00:48.417Z,98573.53
2023-04-01T12:03:46.310Z,98597.47
2023-04-01T12:06:37.042Z,98590.66
2023-04-01T12:09:34.532Z,98610.69
2023-04-01T12:12:16.057Z,98621.13
2023-04-01T12:14:56.828Z,98630.22
2023-04-01T12:17:29.160Z,98637.38
2023-04-01T12:20:14.171Z,98651.22
2023-04-01T12:23:48.702Z,98642.66
2023-04-01T12:26:40.480Z,98659.06
2023-04-01T12:29:26.575Z,98662.69
2023-04-01T12:32:16.413Z,98667.66
2023-04-01T12:35:06.669Z,98682.84
2023-04-01T12:37:51.735Z,98672.34
2023-04-01T12:40:36.053Z,98664.59
2023-04-01T12:43:44.297Z,98680.25
2023-04-01T12:46:16.577Z,98684.00
2023-04-01T12:49:14.369Z,98697.53
2023-04-01T12:51:59.279Z,98704.75
2023-04-01T12:54:49.148Z,98713.91
2023-04-01T12:57:23.292Z,98703.66
2023-04-01T13:00:04.850Z,98712.00
2023-04-01T13:02:47.218Z,98715.69
2023-04-01T13:05:55.895Z,98720.47
2023-04-01T13:08:48.880Z,98722.81
2023-04-01T13:11:27.236Z,98721.69
2023-04-01T13:14:11.890Z,98754.31
2023-04-01T13:17:17.599Z,98772.16
2023-04-01T13:20:04.361Z,98771.28
2023-04-01T13:22:52.622Z,98786.38
2023-04-01T13:25:48.301Z,98779.34
2023-04-01T13:28:27.435Z,98794.81
2023-04-01T13:31:15.213Z,98817.28
2023-04-01T13:33:58.625Z,98821.69
2023-04-01T13:36:27.864Z,98831.81
2023-04-01T13:39:09.576Z,98821.78
2023-04-01T13:42:17.868Z,98826.59
2023-04-01T13:44:48.559Z,98840.78
2023-04-01T13:47:36.429Z,98829.59
2023-04-01T13:50:27.278Z,98845.06
2023-04-01T13:53:22.532Z,98848.41
2023-04-01T13:56:14.396Z,98852.88
2023-04-01T13:58:47.253Z,98855.88
2023-04-01T14:01:18.667Z,98853.69
2023-04-01T14:04:07.409Z,98858.50
2023-04-01T14:07:14.328Z,98864.16
2023-04-01T14:10:01.676Z,98854.38
2023-04-01T14:12:37.312Z,98856.47
2023-04-01T14:15:33.472Z,98862.66
2023-04-01T14:18:51.142Z,98848.53
2023-04-01T14:21:56.014Z,98854.94
2023-04-01T14:24:59.131Z,98843.13
2023-04-01T14:27:36.771Z,98840.44
2023-04-01T14:30:18.614Z,98837.56
2023-04-01T14:33:00.733Z,98852.41
2023-04-01T14:35:54.436Z,98850.22
2023-04-01T14:38:28.509Z,98855.50
2023-04-01T14:41:18.075Z,98852.63
2023-04-01T14:44:16.502Z,98859.19
2023-04-01T14:46:55.062Z,98860.09
2023-04-01T14:49:36.324Z,98849.63
2023-04-01T14:52:23.020Z,98852.88
2023-04-01T14:54:51.894Z,98871.03
2023-04-01T14:57:32.574Z,98858.03
2023-04-01T15:00:05.181Z,98862.63
2023-04-01T15:02:51.803Z,98867.47
2023-04-01T15:05:41.803Z,98875.06
2023-04-01T15:08:15.577Z,98879.66
2023-04-01T15:10:42.077Z,98856.78
2023-04-01T15:13:30.647Z,98867.47
2023-04-01T15:16:35.953Z,98870.91
2023-04-01T15:19:40.239Z,98857.00
2023-04-01T15:22:27.025Z,98853.09
2023-04-01T15:25:31.150Z,98857.94
2023-04-01T15:28:19.220Z,98866.78
2023-04-01T15:30:57.802Z,98857.13
2023-04-01T15:33:43.037Z,98856.78
2023-04-01T15:36:54.480Z,98858.28
2023-04-01T15:39:48.499Z,98857.22
2023-04-01T15:42:33.020Z,98853.22
2023-04-01T15:45:16.212Z,98856.34
2023-04-01T15:47:55.477Z,98866.00
2023-04-01T15:50:21.941Z,98868.28
2023-04-01T15:53:10.662Z,98876.09
2023-04-01T15:55:49.218Z,98886.06
2023-04-01T15:58:37.455Z,98882.19
2023-04-01T16:01:32.435Z,98881.03
2023-04-01T16:04:22.398Z,98884.94
2023-04-01T16:07:10.464Z,98881.59
2023-04-01T16:09:59.382Z,98881.84
2023-04-01T16:13:01.226Z,98897.78
2023-04-01T16:15:39.953Z,98896.75
2023-04-01T16:18:17.339Z,98903.84
2023-04-01T16:21:01.482Z,98912.00
2023-04-01T16:23:52.512Z,98920.59
2023-04-01T16:26:40.328Z,98915.31
2023-04-01T16:29:56.843Z,98926.94
2023-04-01T16:32:42.666Z,98934.41
2023-04-01T16:35:19.259Z,98926.56
2023-04-01T16:37:54.326Z,98934.25
2023-04-01T16:40:44.444Z,98945.81
2023-04-01T16:43:20.969Z,98937.44
2023-04-01T16:46:06.614Z,98952.44
2023-04-01T16:49:01.831Z,98957.59
2023-04-01T16:52:04.791Z,98962.50
2023-04-01T16:54:59.299Z,98959.28
2023-04-01T16:57:44.876Z,98967.44
2023-04-01T17:00:37.358Z,98970.28
2023-04-01T17:03:18.611Z,98980.63
2023-04-01T17:05:53.748Z,98972.13
2023-04-01T17:08:30.102Z,98969.69
2023-04-01T17:11:14.896Z,98974.97
2023-04-01T17:14:00.581Z,98969.69
2023-04-01T17:16:33.104Z,98988.53
2023-04-01T17:19:09.130Z,98979.25
2023-04-01T17:21:52.837Z,98997.28
2023-04-01T17:24:28.164Z,98997.50
2023-04-01T17:27:17.856Z,98991.41
2023-04-01T17:30:16.390Z,99007.81
2023-04-01T17:32:57.492Z,99007.00
2023-04-01T17:35:32.740Z,99011.34
2023-04-01T17:38:30.812Z,99005.28
2023-04-01T17:41:28.443Z,99020.44
2023-04-01T17:44:19.600Z,99015.22
2023-04-01T17:46:46.219Z,99010.41
2023-04-01T17:49:30.522Z,99020.38
2023-04-01T17:52:29.989Z,99018.53
2023-04-01T17:55:08.734Z,99020.97
2023-04-01T17:57:55.739Z,99032.28
2023-04-01T18:00:52.934Z,99029.66
2023-04-01T18:03:58.066Z,99038.38
2023-04-01T18:06:24.670Z,99035.16
2023-04-01T18:09:06.016Z,99045.34
2023-04-01T18:11:41.056Z,99047.19
2023-04-01T18:14:41.666Z,99045.34
2023-04-01T18:17:17.038Z,99056.50
2023-04-01T18:20:09.652Z,99054.28
2023-04-01T18:22:54.972Z,99047.97
2023-04-01T18:25:45.188Z,99059.56
2023-04-01T18:28:45.099Z,99062.22
2023-04-01T18:31:24.893Z,99065.06
2023-04-01T18:33:54.169Z,99069.31
2023-04-01T18:36:43.153Z,99066.31
2023-04-01T18:39:16.643Z,99073.00
2023-04-01T18:42:01.452Z,99075.41
2023-04-01T18:44:51.846Z,99083.31
2023-04-01T18:47:31.449Z,99092.69
2023-04-01T18:50:22.811Z,99086.78
2023-04-01T18:53:11.752Z,99096.28
2023-04-01T18:55:44.074Z,99092.28
2023-04-01T18:58:23.432Z,99100.75
2023-04-01T19:01:02.136Z,99101.78
2023-04-01T19:04:01.515Z,99111.31
2023-04-01T19:06:42.420Z,99105.25
2023-04-01T19:09:25.305Z,99108.88
2023-04-01T19:12:11.018Z,99126.13
2023-04-01T19:14:45.949Z,99121.66
2023-04-01T19:17:34.040Z,99132.00
2023-04-01T19:20:13.216Z,99130.38
2023-04-01T19:22:49.023Z,99131.19
2023-04-01T19:25:33.607Z,99141.53
2023-04-01T19:28:37.702Z,99144.97
2023-04-01T19:31:19.942Z,99143.34
2023-04-01T19:34:20.540Z,99160.00
2023-04-01T19:36:57.691Z,99152.50
2023-04-01T19:39:44.168Z,99153.13
2023-04-01T19:42:36.318Z,99167.09
2023-04-01T19:45:14.865Z,99158.94
2023-04-01T19:47:41.593Z,99161.59
2023-04-01T19:51:03.724Z,99167.47
2023-04-01T19:53:52.692Z,99179.88
2023-04-01T19:56:22.743Z,99173.56
2023-04-01T19:59:03.034Z,99170.75
2023-04-01T20:01:54.591Z,99186.97
2023-04-01T20:04:37.494Z,99186.59
2023-04-01T20:07:24.476Z,99195.91
2023-04-01T20:10:11.532Z,99199.13
2023-04-01T20:13:09.890Z,99208.09
2023-04-01T20:15:48.559Z,99206.28
2023-04-01T20:18:21.493Z,99204.53
2023-04-01T20:21:02.313Z,99222.50
2023-04-01T20:23:41.056Z,99217.22
2023-04-01T20:26:12.955Z,99230.03
2023-04-01T20:28:42.686Z,99241.41
2023-04-01T20:31:32.125Z,99238.59
2023-04-01T20:34:34.160Z,99258.72
2023-04-01T20:37:16.657Z,99247.94
2023-04-01T20:40:01.707Z,99269.84
2023-04-01T20:42:42.501Z,99274.16
2023-04-01T20:45:15.553Z,99259.72
2023-04-01T20:48:00.161Z,99272.53
2023-04-01T20:50:31.725Z,99278.44
2023-04-01T20:53:11.959Z,99285.72
2023-04-01T20:55:47.559Z,99299.94
2023-04-01T20:58:29.884Z,99294.66
2023-04-01T21:01:07.572Z,99303.22
2023-04-01T21:03:52.526Z,99309.50
2023-04-01T21:06:29.120Z,99315.59
2023-04-01T21:09:07.808Z,99315.59
2023-04-01T21:11:46.393Z,99327.53
2023-04-01T21:15:00.219Z,99319.66
2023-04-01T21:18:00.607Z,99335.44
2023-04-01T21:21:08.646Z,99337.53
2023-04-01T21:23:43.912Z,99355.16
2023-04-01T21:26:27.932Z,99340.56
2023-04-01T21:29:28.054Z,99350.13
2023-04-01T21:32:15.852Z,99360.88
2023-04-01T21:34:59.478Z,99358.63
2023-04-01T21:37:34.351Z,99366.16
2023-04-01T21:40:16.349Z,99373.44
2023-04-01T21:42:45.680Z,99383.38
2023-04-01T21:45:50.086Z,99380.94
2023-04-01T21:48:31.333Z,99379.94
2023-04-01T21:51:21.738Z,99396.16
2023-04-01T21:54:26.085Z,99401.22
2023-04-01T21:57:20.372Z,99406.72
2023-04-01T22:00:14.030Z,99412.63
2023-04-01T22:02:58.737Z,99418.72
2023-04-01T22:05:38.561Z,99422.56
2023-04-01T22:08:16.851Z,99429.28
2023-04-01T22:11:13.641Z,99429.28
2023-04-01T22:13:50.568Z,99429.84
2023-04-01T22:16:44.496Z,99445.28
2023-04-01T22:19:29.630Z,99456.63
2023-04-01T22:22:09.971Z,99448.31
2023-04-01T22:25:07.132Z,99460.50
2023-04-01T22:27:54.134Z,99465.16
2023-04-01T22:30:47.524Z,99469.59
2023-04-01T22:33:35.399Z,99470.22
2023-04-01T22:36:11.122Z,99472.66
2023-04-01T22:38:59.188Z,99473.28
2023-04-01T22:41:37.558Z,99469.03
2023-04-01T22:44:04.162Z,99486.88
2023-04-01T22:47:05.511Z,99483.84
2023-04-01T22:49:47.102Z,99483.84
2023-04-01T22:52:45.321Z,99497.63
2023-04-01T22:55:25.134Z,99493.56
2023-04-01T22:57:54.841Z,99503.72
2023-04-01T23:00:37.252Z,99510.03
2023-04-01T23:03:16.175Z,99519.97
2023-04-01T23:06:16.504Z,99532.16
2023-04-01T23:08:53.892Z,99530.13
2023-04-01T23:11:27.906Z,99542.31
2023-04-01T23:14:29.332Z,99544.13
2023-04-01T23:17:27.862Z,99554.88
2023-04-01T23:20:06.977Z,99567.88
2023-04-01T23:22:44.353Z,99560.56
2023-04-01T23:25:23.715Z,99576.75
2023-04-01T23:28:07.031Z,99574.13
2023-04-01T23:30:39.525Z,99577.59
2023-04-01T23:33:21.173Z,99568.06
2023-04-01T23:35:53.187Z,99588.75
2023-04-01T23:38:25.058Z,99590.56
2023-04-01T23:40:54.349Z,99597.28
2023-04-01T23:43:32.185Z,99598.47
2023-04-01T23:46:04.629Z,99603.13
2023-04-01T23:48:39.034Z,99603.13
2023-04-01T23:51:14.695Z,99610.84
2023-04-01T23:53:45.531Z,99617.97
2023-04-01T23:56:12.308Z,99632.13
2023-04-01T23:58:47.612Z,99632.13
